Spring Grove, Kansas
Current Conditions -  °F | °C
As of 3:53 PM on Sunday 25 Jan 2015 (Local Time) from KJLN Reporting Station
Overcast Overcast  
Wind Chill: 33°   Ceiling: 2500
Heat Index: 42°   Visibility: 10mi
Dew Point: 32°   Wind: 21mph
Humidity: 67%   Direction: 320°NW
Pressure: 29.95"   Gusts: 32mph
Location:  37.0394°N, 94.6644°W
Report Text: KJLN 252153Z 32018G28KT 10SM OVC025 06/00 A2995 RMK AO2 PK WND 32030/2107 SLP141 T00560000
Loading
Personal Weather Stations






























Interactive Weather Map New forecast layout! Learn more

10-Day Weather Forecast

Advertisements
Track Severe Weather on mobile